General Madariaga, Argentina
Current Conditions -  °F | °C
As of 4:00 PM on Monday 22 Dec 2014 (Local Time) from SAZM Reporting Station
Broken Clouds Broken Clouds  
Wind Chill: 63°   Ceiling: 3000
Heat Index: 63°   Visibility: 6mi
Dew Point: 41°   Wind: 17mph
Humidity: 45%   Direction: 250°WSW
Pressure: 30.06"   Gusts: NA
Location:  37°S, 57.15°W
Report Text: SAZM 221900Z 25015KT 9999 FEW025TCU BKN030 17/05 Q1018
Loading
Personal Weather Stations






























Interactive Weather Map New forecast layout! Learn more

10-Day Weather Forecast

Advertisements
Track Severe Weather on mobile